Time;durP1;ratioP1;P1;durP2;ratioP2;P2;SDS_P1;SDS_P2;PMS_P1;PMS_P2;Temp;Humidity;BMP_temperature;BMP_pressure;BME280_temperature;BME280_humidity;BME280_pressure;Samples;Min_cycle;Max_cycle;Signal;HPM_P1;HPM_P2
2023/05/25 00:02:18;;;;;;;18.27;10.55;;;;;;;17.69;69.11;99899.78;5037044;28;20113;-70
2023/05/25 00:04:47;;;;;;;21.10;10.97;;;;;;;17.62;69.26;99906.28;5037390;28;20057;-70
2023/05/25 00:07:14;;;;;;;20.35;10.48;;;;;;;17.57;69.35;99908.25;5050715;28;20117;-70
2023/05/25 00:09:43;;;;;;;18.75;10.27;;;;;;;17.55;69.34;99912.78;5036793;28;20029;-70
2023/05/25 00:12:09;;;;;;;18.08;10.38;;;;;;;17.49;69.43;99914.75;5036554;28;20402;-70
2023/05/25 00:14:34;;;;;;;19.87;10.80;;;;;;;17.44;69.58;99919.38;5040959;28;20030;-70
2023/05/25 00:17:02;;;;;;;20.05;10.45;;;;;;;17.44;69.41;99919.38;5056558;28;20025;-70
2023/05/25 00:19:32;;;;;;;19.23;9.70;;;;;;;17.44;69.52;99926.50;5056512;28;20078;-70
2023/05/25 00:22:01;;;;;;;21.70;12.05;;;;;;;17.43;69.58;99914.97;5057613;28;20025;-70
2023/05/25 00:24:28;;;;;;;20.65;10.02;;;;;;;17.39;69.73;99924.00;5062929;28;20032;-70
2023/05/25 00:26:54;;;;;;;21.17;10.60;;;;;;;17.35;69.53;99922.38;5036784;28;20440;-70
2023/05/25 00:29:20;;;;;;;23.02;10.38;;;;;;;17.32;69.56;99925.16;5037138;28;20111;-70
2023/05/25 00:31:45;;;;;;;20.03;11.47;;;;;;;17.29;69.69;99922.63;5036324;28;20041;-70
2023/05/25 00:34:11;;;;;;;20.57;10.67;;;;;;;17.24;69.80;99919.25;5046848;28;20488;-70
2023/05/25 00:36:37;;;;;;;18.75;10.45;;;;;;;17.19;69.87;99917.63;5036683;28;20049;-70
2023/05/25 00:39:02;;;;;;;18.30;10.13;;;;;;;17.14;69.93;99919.59;5035841;28;20099;-70
2023/05/25 00:41:30;;;;;;;21.92;11.07;;;;;;;17.11;70.04;99919.72;5044521;28;20614;-70
2023/05/25 00:43:56;;;;;;;21.27;11.97;;;;;;;17.04;70.19;99918.22;5040118;28;20063;-70
2023/05/25 00:46:22;;;;;;;19.83;11.80;;;;;;;16.99;70.30;99922.81;5023441;28;20029;-70
2023/05/25 00:48:53;;;;;;;21.25;11.77;;;;;;;16.93;70.55;99924.75;5055346;28;20029;-70
2023/05/25 00:51:19;;;;;;;20.17;10.50;;;;;;;16.88;70.62;99926.72;5060574;28;20025;-70
2023/05/25 00:53:44;;;;;;;19.43;10.40;;;;;;;16.89;70.69;99924.94;5059512;28;20039;-70
2023/05/25 00:56:12;;;;;;;20.20;10.90;;;;;;;16.87;70.61;99930.28;5050696;28;20098;-70
2023/05/25 00:58:40;;;;;;;17.38;10.18;;;;;;;16.85;70.58;99929.47;5039114;28;20064;-70
2023/05/25 01:01:12;;;;;;;18.33;10.88;;;;;;;16.77;70.77;99926.22;5040151;28;20052;-69
2023/05/25 01:03:41;;;;;;;22.83;11.50;;;;;;;16.74;71.01;99926.31;5039282;28;20021;-70
2023/05/25 01:06:11;;;;;;;23.13;11.63;;;;;;;16.71;70.84;99921.09;5052126;28;20044;-70
2023/05/25 01:08:41;;;;;;;23.00;11.45;;;;;;;16.69;71.12;99925.63;5041409;28;20021;-70
2023/05/25 01:11:10;;;;;;;18.00;9.90;;;;;;;16.68;71.08;99923.88;5060187;28;20032;-70
2023/05/25 01:13:37;;;;;;;19.33;10.18;;;;;;;16.69;70.82;99918.53;5048900;28;20025;-70
2023/05/25 01:16:05;;;;;;;19.85;9.48;;;;;;;16.71;70.97;99926.41;5039949;28;20033;-70
2023/05/25 01:18:33;;;;;;;20.70;12.10;;;;;;;16.71;70.70;99926.41;5047117;28;20067;-70
2023/05/25 01:21:12;;;;;;;20.88;10.80;;;;;;;16.68;70.70;99932.75;5059629;28;20075;-70
2023/05/25 01:23:42;;;;;;;22.88;10.48;;;;;;;16.62;70.94;99931.16;5038872;28;21005;-70
2023/05/25 01:26:14;;;;;;;19.63;10.98;;;;;;;16.57;71.03;99929.56;5040050;28;20021;-70
2023/05/25 01:28:49;;;;;;;21.45;11.52;;;;;;;16.54;71.05;99924.34;5039061;28;20124;-70
2023/05/25 01:31:16;;;;;;;25.67;11.00;;;;;;;16.51;71.07;99933.28;5038409;28;20037;-70
2023/05/25 01:33:45;;;;;;;18.13;10.57;;;;;;;16.48;71.17;99934.28;5039744;28;20022;-70
2023/05/25 01:36:10;;;;;;;22.15;11.88;;;;;;;16.48;71.13;99944.03;5040036;28;20033;-70
2023/05/25 01:38:37;;;;;;;21.07;11.23;;;;;;;16.45;71.24;99945.03;5039537;28;20089;-70
2023/05/25 01:41:02;;;;;;;23.30;11.77;;;;;;;16.42;71.14;99941.59;5050626;28;20509;-70
2023/05/25 01:43:28;;;;;;;20.67;10.10;;;;;;;16.37;71.27;99941.72;5047084;28;20021;-70
2023/05/25 01:46:14;;;;;;;23.48;12.15;;;;;;;16.32;71.48;99941.91;5039307;28;20037;-70
2023/05/25 01:49:01;;;;;;;23.90;11.03;;;;;;;16.24;71.69;99943.94;5054864;28;20018;-70
2023/05/25 01:51:39;;;;;;;25.75;10.93;;;;;;;16.24;71.65;99940.41;5059583;28;20032;-70
2023/05/25 01:54:17;;;;;;;21.13;10.90;;;;;;;16.22;71.44;99940.47;5059140;28;20025;-70
2023/05/25 01:56:47;;;;;;;18.63;10.55;;;;;;;16.21;71.57;99934.28;5044975;28;20080;-70
2023/05/25 01:59:15;;;;;;;20.65;11.32;;;;;;;16.15;71.86;99933.63;5037944;28;20025;-70
2023/05/25 02:01:41;;;;;;;19.00;10.13;;;;;;;16.11;71.70;99931.97;5039412;28;20040;-70
2023/05/25 02:04:07;;;;;;;16.67;10.07;;;;;;;16.07;71.70;99932.09;5038898;28;20032;-70
2023/05/25 02:06:35;;;;;;;20.42;11.38;;;;;;;16.07;71.71;99933.84;5057806;28;20139;-70
2023/05/25 02:09:01;;;;;;;20.50;10.30;;;;;;;16.04;71.48;99932.19;5039290;28;20488;-70
2023/05/25 02:11:26;;;;;;;22.93;10.73;;;;;;;16.00;71.82;99938.50;5039266;28;20045;-70
2023/05/25 02:13:52;;;;;;;20.63;11.03;;;;;;;15.96;72.06;99936.84;5047868;28;20020;-70
2023/05/25 02:16:17;;;;;;;21.77;10.52;;;;;;;15.93;71.96;99936.97;5059144;28;20033;-70
2023/05/25 02:18:43;;;;;;;22.10;10.80;;;;;;;15.90;71.90;99940.56;5058748;28;20040;-70
2023/05/25 02:21:10;;;;;;;18.90;10.93;;;;;;;15.89;71.86;99936.16;5055347;28;20025;-70
2023/05/25 02:23:35;;;;;;;17.98;10.65;;;;;;;15.88;71.73;99941.53;5050461;28;20033;-70
2023/05/25 02:26:01;;;;;;;22.60;10.82;;;;;;;15.85;71.85;99938.97;5038796;28;20044;-70
2023/05/25 02:28:26;;;;;;;18.20;9.33;;;;;;;15.81;72.15;99951.44;5037624;28;20021;-69
2023/05/25 02:30:52;;;;;;;25.50;11.23;;;;;;;15.78;72.07;99943.59;5038905;28;20068;-70
2023/05/25 02:33:17;;;;;;;17.90;10.52;;;;;;;15.77;72.02;99944.50;5038765;28;20068;-70
2023/05/25 02:35:43;;;;;;;19.20;11.17;;;;;;;15.70;72.43;99943.81;5038579;28;20033;-70
2023/05/25 02:38:08;;;;;;;19.77;9.87;;;;;;;15.68;72.25;99944.81;5037276;28;20084;-70
2023/05/25 02:40:34;;;;;;;20.50;10.63;;;;;;;15.65;72.31;99940.44;5047312;28;20024;-70
2023/05/25 02:43:00;;;;;;;18.70;10.23;;;;;;;15.63;72.38;99939.63;5049951;28;20068;-69
2023/05/25 02:45:25;;;;;;;20.10;10.75;;;;;;;15.63;72.04;99943.13;5038142;28;20710;-70
2023/05/25 02:47:51;;;;;;;23.37;11.40;;;;;;;15.60;72.07;99942.38;5046864;28;20078;-70
2023/05/25 02:50:16;;;;;;;19.13;9.50;;;;;;;15.54;72.52;99947.84;5057785;28;20507;-69
2023/05/25 02:52:42;;;;;;;19.75;10.50;;;;;;;15.53;72.43;99938.13;5058087;28;20533;-70
2023/05/25 02:55:09;;;;;;;18.83;10.90;;;;;;;15.52;72.33;99936.41;5056671;28;20396;-70
2023/05/25 02:57:36;;;;;;;19.70;10.40;;;;;;;15.50;72.41;99944.44;5037990;28;20033;-69
2023/05/25 03:00:03;;;;;;;18.77;10.43;;;;;;;15.52;72.33;99941.72;5037928;28;20037;-70
2023/05/25 03:02:29;;;;;;;23.10;10.93;;;;;;;15.50;72.44;99939.13;5048635;28;20025;-70
2023/05/25 03:04:55;;;;;;;20.85;10.50;;;;;;;15.44;72.31;99945.47;5054518;28;20489;-69
2023/05/25 03:07:20;;;;;;;20.73;9.83;;;;;;;15.41;72.50;99942.91;5051899;28;20116;-69
2023/05/25 03:09:46;;;;;;;22.23;11.20;;;;;;;15.40;72.58;99938.53;5037562;28;20548;-69
2023/05/25 03:12:14;;;;;;;23.37;11.37;;;;;;;15.36;72.72;99942.19;5037278;28;20034;-69
2023/05/25 03:14:40;;;;;;;21.98;11.93;;;;;;;15.32;72.62;99938.75;5054262;28;20025;-70
2023/05/25 03:17:05;;;;;;;19.70;10.97;;;;;;;15.29;72.75;99932.63;5057575;28;20028;-69
2023/05/25 03:19:31;;;;;;;23.57;11.43;;;;;;;15.27;73.11;99934.47;5057351;28;20021;-70
2023/05/25 03:21:56;;;;;;;20.43;10.77;;;;;;;15.26;72.90;99930.09;5044506;28;20121;-69
2023/05/25 03:24:22;;;;;;;21.02;10.68;;;;;;;15.29;72.79;99927.34;5037514;28;20037;-69
2023/05/25 03:26:47;;;;;;;22.43;11.50;;;;;;;15.25;72.89;99931.88;5037591;28;20033;-69
2023/05/25 03:29:13;;;;;;;19.83;10.93;;;;;;;15.21;73.21;99931.09;5037429;28;20021;-70
2023/05/25 03:31:38;;;;;;;19.33;10.48;;;;;;;15.14;73.27;99933.94;5037328;28;20029;-69
2023/05/25 03:34:05;;;;;;;20.27;9.93;;;;;;;15.12;73.34;99933.13;5037185;28;20409;-70
2023/05/25 03:36:32;;;;;;;23.15;11.07;;;;;;;15.13;73.21;99927.78;5037450;28;20432;-69
2023/05/25 03:38:57;;;;;;;18.67;9.93;;;;;;;15.11;73.03;99940.22;5037208;28;20472;-70
2023/05/25 03:41:23;;;;;;;21.77;11.00;;;;;;;15.09;73.23;99936.75;5053253;28;20027;-69
2023/05/25 03:43:48;;;;;;;24.57;11.30;;;;;;;15.06;73.57;99943.00;5042929;28;20040;-70
2023/05/25 03:46:13;;;;;;;24.77;11.07;;;;;;;15.05;73.52;99940.38;5035859;28;20565;-70
2023/05/25 03:48:39;;;;;;;18.40;9.63;;;;;;;15.01;73.42;99944.03;5051722;28;20021;-70
2023/05/25 03:51:05;;;;;;;18.30;9.73;;;;;;;15.02;73.65;99941.34;5056965;28;20024;-69
2023/05/25 03:53:30;;;;;;;19.30;10.20;;;;;;;15.00;73.33;99940.53;5057218;28;20030;-69
2023/05/25 03:55:56;;;;;;;19.67;9.90;;;;;;;15.00;73.51;99942.31;5048893;28;20214;-70
2023/05/25 03:58:21;;;;;;;19.88;10.00;;;;;;;15.00;73.23;99934.34;5044248;28;20093;-69
2023/05/25 04:00:50;;;;;;;21.77;10.27;;;;;;;14.98;73.59;99938.81;5056839;28;20062;-69
2023/05/25 04:03:16;;;;;;;22.85;10.48;;;;;;;14.97;73.44;99927.38;5056717;28;20052;-70
2023/05/25 04:05:42;;;;;;;21.93;10.07;;;;;;;14.95;73.47;99931.84;5051235;28;20053;-70
2023/05/25 04:08:08;;;;;;;19.83;9.40;;;;;;;14.95;73.67;99930.97;5046515;28;20103;-69
2023/05/25 04:10:34;;;;;;;22.85;11.60;;;;;;;14.93;73.68;99936.28;5050623;28;20032;-69
2023/05/25 04:12:59;;;;;;;20.77;10.43;;;;;;;14.91;73.70;99933.69;5048662;28;20032;-70
2023/05/25 04:15:25;;;;;;;21.57;10.23;;;;;;;14.88;73.54;99928.47;5035514;28;20587;-69
2023/05/25 04:17:51;;;;;;;21.30;11.15;;;;;;;14.87;73.75;99923.22;5036687;28;20437;-70
2023/05/25 04:20:16;;;;;;;22.77;10.63;;;;;;;14.78;74.04;99919.03;5036428;28;20039;-69
2023/05/25 04:22:46;;;;;;;20.63;10.20;;;;;;;14.78;74.02;99924.31;5039520;28;20488;-69
2023/05/25 04:25:13;;;;;;;17.63;9.57;;;;;;;14.80;73.80;99926.94;5036609;28;20032;-69
2023/05/25 04:27:39;;;;;;;21.58;10.52;;;;;;;14.80;73.83;99929.59;5036617;28;20064;-69
2023/05/25 04:30:05;;;;;;;21.58;10.38;;;;;;;14.79;73.83;99931.38;5036371;28;20025;-69
2023/05/25 04:32:35;;;;;;;22.23;10.48;;;;;;;14.77;74.13;99934.06;5036365;28;20041;-69
2023/05/25 04:35:02;;;;;;;23.97;11.50;;;;;;;14.76;74.18;99928.78;5036416;28;20030;-69
2023/05/25 04:37:27;;;;;;;22.42;10.25;;;;;;;14.74;74.15;99923.56;5035073;28;20503;-69
2023/05/25 04:39:53;;;;;;;24.08;10.18;;;;;;;14.75;73.98;99927.06;5039711;28;20382;-69
2023/05/25 04:42:22;;;;;;;23.43;10.87;;;;;;;14.73;74.08;99934.19;5053157;28;20512;-69
2023/05/25 04:44:54;;;;;;;21.48;10.57;;;;;;;14.77;74.06;99935.84;5036590;28;20033;-69
2023/05/25 04:47:20;;;;;;;24.27;10.90;;;;;;;14.79;74.00;99939.31;5040238;28;20040;-69
2023/05/25 04:49:46;;;;;;;25.80;10.52;;;;;;;14.80;73.74;99941.06;5056147;28;20021;-69
2023/05/25 04:52:11;;;;;;;26.57;10.83;;;;;;;14.84;73.91;99945.38;5056330;28;20040;-70
2023/05/25 04:54:37;;;;;;;20.80;10.33;;;;;;;14.85;73.97;99944.47;5056104;28;20021;-69
2023/05/25 04:57:03;;;;;;;20.60;9.83;;;;;;;14.86;74.20;99946.22;5041710;28;20271;-69
2023/05/25 04:59:28;;;;;;;23.85;10.65;;;;;;;14.90;73.77;99958.47;5056213;28;20029;-69
2023/05/25 05:01:54;;;;;;;21.50;11.17;;;;;;;14.96;73.55;99957.44;5056092;28;20028;-69
2023/05/25 05:04:19;;;;;;;26.03;10.50;;;;;;;15.09;73.24;99957.97;5055682;28;20029;-69
2023/05/25 05:06:45;;;;;;;21.33;10.70;;;;;;;15.24;72.67;99961.97;5047601;28;20029;-69
2023/05/25 05:09:11;;;;;;;21.80;10.67;;;;;;;15.34;72.54;99957.28;5034992;28;20087;-69
2023/05/25 05:11:37;;;;;;;25.08;10.48;;;;;;;15.44;72.26;99964.03;5034989;28;20021;-69
2023/05/25 05:14:02;;;;;;;20.67;9.67;;;;;;;15.53;71.91;99964.69;5034935;28;20116;-70
2023/05/25 05:16:32;;;;;;;23.45;9.95;;;;;;;15.61;71.91;99970.66;5036095;28;20068;-69
2023/05/25 05:18:57;;;;;;;19.98;9.55;;;;;;;15.72;71.53;99965.88;5034802;28;20459;-70
2023/05/25 05:21:23;;;;;;;20.77;9.77;;;;;;;15.84;71.34;99966.44;5039584;28;20041;-70
2023/05/25 05:23:48;;;;;;;20.93;9.73;;;;;;;15.91;71.21;99958.28;5036117;28;20033;-69
2023/05/25 05:26:14;;;;;;;17.93;9.20;;;;;;;16.04;70.69;99953.44;5052696;28;20086;-69
2023/05/25 05:28:39;;;;;;;19.67;9.05;;;;;;;16.12;70.61;99954.97;5055654;28;20036;-69
2023/05/25 05:31:06;;;;;;;22.73;9.03;;;;;;;16.18;70.35;99947.69;5038076;28;20044;-69
2023/05/25 05:33:32;;;;;;;23.48;9.90;;;;;;;16.24;70.16;99954.56;5040463;28;20099;-70
2023/05/25 05:35:58;;;;;;;22.80;10.17;;;;;;;16.31;70.00;99961.44;5039580;28;20033;-70
2023/05/25 05:38:24;;;;;;;18.73;8.68;;;;;;;16.33;69.98;99956.94;5042289;28;20090;-70
2023/05/25 05:40:50;;;;;;;16.00;8.77;;;;;;;16.42;69.64;99960.19;5049555;28;20029;-69
2023/05/25 05:43:15;;;;;;;21.97;9.33;;;;;;;16.48;69.45;99950.22;5050383;28;20306;-70
2023/05/25 05:45:41;;;;;;;22.53;8.83;;;;;;;16.52;69.23;99958.97;5039437;28;20089;-70
2023/05/25 05:48:09;;;;;;;20.30;8.35;;;;;;;16.60;69.07;99950.72;5046892;28;20013;-70
2023/05/25 05:50:36;;;;;;;20.92;8.70;;;;;;;16.70;68.70;99953.94;5058851;28;20033;-70
2023/05/25 05:53:02;;;;;;;19.87;7.77;;;;;;;16.73;68.65;99956.47;5059275;28;20053;-70
2023/05/25 05:55:27;;;;;;;16.27;7.95;;;;;;;16.77;68.52;99955.47;5055063;28;20032;-69
2023/05/25 05:57:53;;;;;;;18.33;8.43;;;;;;;16.84;68.44;99959.66;5051172;28;20051;-69
2023/05/25 06:00:19;;;;;;;22.03;8.80;;;;;;;16.81;67.95;99957.09;5046897;28;20116;-69
2023/05/25 06:02:44;;;;;;;21.05;8.20;;;;;;;16.90;68.00;99964.75;5046163;28;20489;-69
2023/05/25 06:05:11;;;;;;;17.67;8.50;;;;;;;16.92;67.92;99962.91;5051199;28;20053;-69
2023/05/25 06:07:37;;;;;;;19.23;8.50;;;;;;;16.84;68.31;99957.00;5042051;28;20095;-69
2023/05/25 06:10:06;;;;;;;21.17;8.20;;;;;;;16.78;68.33;99950.09;5040619;28;20085;-69
2023/05/25 06:12:31;;;;;;;21.58;8.63;;;;;;;16.85;67.82;99945.44;5040930;28;20029;-71
2023/05/25 06:14:57;;;;;;;16.67;8.00;;;;;;;16.92;67.89;99948.75;5038557;28;20036;-69
2023/05/25 06:17:23;;;;;;;21.30;8.07;;;;;;;16.98;67.75;99951.22;5044652;28;20098;-69
2023/05/25 06:19:51;;;;;;;18.63;8.13;;;;;;;16.98;67.49;99950.28;5039438;28;20041;-69
2023/05/25 06:22:16;;;;;;;18.58;8.60;;;;;;;16.97;67.62;99949.44;5042901;28;20057;-69
2023/05/25 06:24:42;;;;;;;16.73;7.97;;;;;;;17.03;67.58;99938.59;5042371;28;20036;-69
2023/05/25 06:27:07;;;;;;;18.10;7.23;;;;;;;16.94;67.75;99953.06;5046791;28;20052;-69
2023/05/25 06:29:33;;;;;;;20.80;7.80;;;;;;;16.84;67.93;99949.00;5041190;28;20021;-69
2023/05/25 06:31:58;;;;;;;22.77;8.40;;;;;;;16.81;68.09;99945.59;5037730;28;20036;-69
2023/05/25 06:34:24;;;;;;;16.20;7.53;;;;;;;16.75;68.08;99944.00;5037514;28;20093;-70
2023/05/25 06:36:51;;;;;;;19.83;7.57;;;;;;;16.63;67.82;99946.19;5040235;28;20052;-69
2023/05/25 06:39:16;;;;;;;17.38;7.72;;;;;;;16.52;67.92;99958.97;5043216;28;20041;-70
2023/05/25 06:41:42;;;;;;;17.43;7.43;;;;;;;16.45;68.06;99955.66;5050386;28;20029;-70
2023/05/25 06:44:07;;;;;;;18.13;7.43;;;;;;;16.38;68.47;99958.56;5040762;28;20029;-70
2023/05/25 06:46:33;;;;;;;20.23;7.70;;;;;;;16.31;68.29;99961.44;5038424;28;20163;-70
2023/05/25 06:48:59;;;;;;;18.70;8.30;;;;;;;16.27;68.52;99957.09;5055168;28;20021;-70
2023/05/25 06:51:26;;;;;;;19.42;6.82;;;;;;;16.29;68.29;99957.97;5058199;28;20079;-70
2023/05/25 06:53:52;;;;;;;17.25;7.88;;;;;;;16.27;68.06;99948.28;5056002;28;20079;-69
2023/05/25 06:56:18;;;;;;;19.48;7.30;;;;;;;16.27;68.31;99942.97;5037823;28;20461;-70
2023/05/25 06:58:43;;;;;;;18.23;8.27;;;;;;;16.27;68.35;99933.19;5036366;28;20033;-70
2023/05/25 07:01:09;;;;;;;19.73;7.90;;;;;;;16.25;68.53;99950.97;5037420;28;20033;-70
2023/05/25 07:03:35;;;;;;;19.50;7.17;;;;;;;16.30;68.28;99941.09;5037508;28;20438;-70
2023/05/25 07:06:00;;;;;;;15.98;7.22;;;;;;;16.38;68.14;99950.59;5050092;28;20045;-70
2023/05/25 07:08:26;;;;;;;19.60;8.17;;;;;;;16.40;67.81;99951.41;5041897;28;20450;-70
2023/05/25 07:10:51;;;;;;;21.20;8.00;;;;;;;16.41;67.73;99940.75;5037714;28;20028;-69
2023/05/25 07:13:16;;;;;;;16.57;7.13;;;;;;;16.44;67.73;99940.63;5037362;28;20021;-70
2023/05/25 07:15:42;;;;;;;16.73;7.30;;;;;;;16.47;67.81;99950.28;5037639;28;20152;-70
2023/05/25 07:18:11;;;;;;;18.53;7.63;;;;;;;16.46;67.51;99951.19;5037175;28;20505;-70
2023/05/25 07:20:38;;;;;;;21.20;8.10;;;;;;;16.40;67.49;99954.06;5037761;28;20489;-70
2023/05/25 07:23:03;;;;;;;16.93;7.27;;;;;;;16.36;67.85;99951.50;5039565;28;20017;-70
2023/05/25 07:25:28;;;;;;;19.70;7.55;;;;;;;16.32;67.73;99955.19;5037337;28;20090;-70
2023/05/25 07:27:54;;;;;;;18.53;7.00;;;;;;;16.33;67.90;99954.28;5037322;28;20017;-70
2023/05/25 07:30:20;;;;;;;17.13;7.27;;;;;;;16.35;68.02;99960.41;5037228;28;20025;-69
2023/05/25 07:32:45;;;;;;;23.55;7.75;;;;;;;16.42;67.73;99957.53;5037222;28;20017;-70
2023/05/25 07:35:10;;;;;;;20.40;7.47;;;;;;;16.46;67.82;99961.81;5035828;28;20056;-70
2023/05/25 07:37:36;;;;;;;15.77;7.10;;;;;;;16.52;67.77;99961.63;5037203;28;20434;-70
2023/05/25 07:40:02;;;;;;;20.27;7.33;;;;;;;16.61;67.56;99960.44;5042933;28;20525;-70
2023/05/25 07:42:32;;;;;;;20.35;7.60;;;;;;;16.78;67.33;99959.88;5050180;28;20018;-70
2023/05/25 07:44:58;;;;;;;22.35;7.30;;;;;;;16.98;66.50;99956.53;5056856;28;20029;-70
2023/05/25 07:47:24;;;;;;;21.43;7.90;;;;;;;17.14;65.96;99951.53;5052523;28;20032;-70
2023/05/25 07:49:49;;;;;;;19.67;7.15;;;;;;;17.34;65.64;99949.94;5056689;28;20028;-70
2023/05/25 07:52:15;;;;;;;21.17;7.03;;;;;;;17.60;64.64;99940.09;5056678;28;20033;-70
2023/05/25 07:54:41;;;;;;;21.52;6.45;;;;;;;17.77;63.90;99945.63;5056714;28;20025;-70
2023/05/25 07:57:06;;;;;;;14.27;6.40;;;;;;;17.89;63.72;99948.72;5038630;28;20039;-70
2023/05/25 07:59:32;;;;;;;21.30;6.70;;;;;;;18.17;62.85;99942.31;5035493;28;20034;-70
2023/05/25 08:01:57;;;;;;;18.25;6.10;;;;;;;18.43;61.93;99937.69;5040854;28;20116;-70
2023/05/25 08:04:22;;;;;;;18.20;6.60;;;;;;;18.70;61.26;99940.16;5056283;28;20083;-70
2023/05/25 08:06:48;;;;;;;18.40;6.13;;;;;;;18.98;60.75;99938.94;5050012;28;20022;-70
2023/05/25 08:09:13;;;;;;;14.87;5.73;;;;;;;19.16;59.92;99938.13;5036708;28;20061;-70
2023/05/25 08:11:39;;;;;;;15.30;5.77;;;;;;;19.26;59.19;99940.38;5036437;28;20044;-70
2023/05/25 08:14:04;;;;;;;14.70;5.30;;;;;;;19.43;59.16;99939.59;5036212;28;20326;-70
2023/05/25 08:16:30;;;;;;;17.27;6.43;;;;;;;19.60;58.44;99941.47;5036311;28;20444;-70
2023/05/25 08:18:55;;;;;;;18.13;6.90;;;;;;;19.71;57.88;99936.50;5036277;28;20037;-70
2023/05/25 08:21:20;;;;;;;16.83;6.35;;;;;;;19.84;56.74;99934.13;5039050;28;20025;-70
2023/05/25 08:23:46;;;;;;;16.57;5.60;;;;;;;19.96;56.67;99934.50;5036483;28;20039;-70
2023/05/25 08:26:12;;;;;;;13.15;5.68;;;;;;;20.12;56.14;99934.59;5036399;28;20021;-70
2023/05/25 08:28:37;;;;;;;14.20;5.27;;;;;;;20.25;55.97;99941.09;5036144;28;20025;-70
2023/05/25 08:31:03;;;;;;;11.30;4.80;;;;;;;20.37;55.44;99939.59;5036060;28;20030;-70
2023/05/25 08:33:29;;;;;;;14.33;5.33;;;;;;;20.43;55.10;99936.63;5035960;28;20113;-70
2023/05/25 08:35:55;;;;;;;15.33;5.77;;;;;;;20.50;54.52;99942.53;5036178;28;20275;-70
2023/05/25 08:38:24;;;;;;;15.55;5.82;;;;;;;20.49;53.87;99941.63;5036457;28;20033;-70
2023/05/25 08:41:12;;;;;;;16.33;5.50;;;;;;;20.45;54.33;99936.53;5051215;28;20112;-70
2023/05/25 08:43:37;;;;;;;14.15;5.47;;;;;;;20.50;54.42;99937.16;5039546;28;20584;-70
2023/05/25 08:46:05;;;;;;;20.97;6.20;;;;;;;20.63;54.65;99932.06;5035839;28;20068;-70
2023/05/25 08:48:35;;;;;;;13.85;5.40;;;;;;;20.70;54.38;99943.31;5050249;28;20031;-70
2023/05/25 08:51:06;;;;;;;12.43;5.40;;;;;;;20.61;52.92;99934.78;5055888;28;20055;-70
2023/05/25 08:53:35;;;;;;;12.38;5.18;;;;;;;20.55;54.16;99945.81;5056034;28;20029;-70
2023/05/25 08:56:07;;;;;;;13.73;5.03;;;;;;;20.68;53.81;99937.19;5047439;28;20041;-70
2023/05/25 08:58:39;;;;;;;12.25;4.80;;;;;;;20.82;53.58;99941.84;5043070;28;20032;-70
2023/05/25 09:01:07;;;;;;;15.80;4.82;;;;;;;20.77;52.39;99939.38;5055679;28;20035;-70
2023/05/25 09:03:35;;;;;;;11.50;4.93;;;;;;;20.90;53.05;99944.97;5054268;28;20119;-70
2023/05/25 09:06:00;;;;;;;13.77;4.40;;;;;;;21.01;53.06;99942.63;5052911;28;20113;-70
2023/05/25 09:08:27;;;;;;;13.23;4.65;;;;;;;21.23;52.07;99942.31;5041034;28;20037;-72
2023/05/25 09:10:55;;;;;;;13.25;4.40;;;;;;;21.46;51.28;99937.53;5039951;28;20359;-70
2023/05/25 09:13:20;;;;;;;12.30;4.60;;;;;;;21.62;50.08;99936.69;5039741;28;20065;-70
2023/05/25 09:15:46;;;;;;;14.27;4.32;;;;;;;21.73;50.34;99934.28;5038377;28;20029;-70
2023/05/25 09:18:12;;;;;;;11.07;4.13;;;;;;;21.90;49.44;99932.50;5039508;28;20371;-70
2023/05/25 09:20:37;;;;;;;11.35;3.78;;;;;;;21.95;49.63;99925.03;5040087;28;20033;-70
2023/05/25 09:23:03;;;;;;;12.07;3.93;;;;;;;22.08;48.82;99928.75;5042001;28;20135;-70
2023/05/25 09:25:30;;;;;;;13.83;3.63;;;;;;;22.25;48.21;99934.94;5039627;28;20026;-70
2023/05/25 09:27:58;;;;;;;13.65;3.88;;;;;;;22.36;47.93;99937.88;5038360;28;20591;-70
2023/05/25 09:30:24;;;;;;;12.95;4.10;;;;;;;22.19;47.76;99922.78;5039479;28;20033;-70
2023/05/25 09:32:53;;;;;;;15.77;3.78;;;;;;;21.96;47.98;99929.44;5039326;28;20113;-70
2023/05/25 09:35:18;;;;;;;11.60;4.30;;;;;;;21.83;47.66;99928.44;5042136;28;20473;-70
2023/05/25 09:37:44;;;;;;;14.83;4.17;;;;;;;21.69;47.94;99922.03;5059233;28;20033;-70
2023/05/25 09:40:10;;;;;;;16.10;4.03;;;;;;;21.60;47.96;99918.00;5059273;28;20032;-70
2023/05/25 09:42:36;;;;;;;14.57;3.67;;;;;;;21.65;48.02;99915.13;5053542;28;20022;-70
2023/05/25 09:45:02;;;;;;;8.57;3.50;;;;;;;21.60;46.86;99915.31;5039266;28;20456;-70
2023/05/25 09:47:28;;;;;;;10.65;3.20;;;;;;;21.48;47.05;99914.19;5044062;28;20031;-70
2023/05/25 09:49:55;;;;;;;12.80;3.63;;;;;;;21.60;46.80;99914.47;5058957;28;20029;-70
2023/05/25 09:52:21;;;;;;;8.88;3.45;;;;;;;21.74;45.93;99913.72;5058950;28;20074;-70
2023/05/25 09:54:50;;;;;;;10.37;3.50;;;;;;;21.78;46.23;99913.44;5059040;28;20115;-70
2023/05/25 09:57:18;;;;;;;9.00;3.30;;;;;;;21.91;46.73;99918.13;5058830;28;20025;-70
2023/05/25 09:59:44;;;;;;;7.57;3.17;;;;;;;22.00;45.70;99908.69;5059238;28;20214;-70
2023/05/25 10:02:10;;;;;;;11.07;2.90;;;;;;;22.16;45.04;99908.66;5058771;28;20071;-70
2023/05/25 10:04:35;;;;;;;11.63;3.37;;;;;;;22.21;44.56;99911.94;5058399;28;20496;-70
2023/05/25 10:07:03;;;;;;;12.00;2.80;;;;;;;22.22;44.72;99908.31;5053179;28;20771;-70
2023/05/25 10:09:29;;;;;;;9.45;2.97;;;;;;;22.34;44.35;99910.28;5038818;28;20026;-70
2023/05/25 10:12:00;;;;;;;12.73;3.20;;;;;;;22.36;43.87;99910.16;5037851;28;20497;-70
2023/05/25 10:14:27;;;;;;;9.80;3.25;;;;;;;22.57;44.38;99900.03;5038738;28;20121;-70
2023/05/25 10:16:56;;;;;;;10.90;3.35;;;;;;;22.74;43.55;99911.53;5038734;28;20467;-70
2023/05/25 10:19:35;;;;;;;10.50;3.17;;;;;;;22.67;43.29;99900.34;5038223;28;20025;-70
2023/05/25 10:22:14;;;;;;;7.47;2.90;;;;;;;22.60;42.90;99905.22;5041765;28;20033;-70
2023/05/25 10:25:07;;;;;;;10.43;3.03;;;;;;;22.53;43.32;99916.41;5038586;28;20104;-71
2023/05/25 10:27:42;;;;;;;9.27;2.85;;;;;;;22.53;43.57;99911.88;5038718;28;20445;-70
2023/05/25 10:30:08;;;;;;;8.45;3.05;;;;;;;22.55;43.51;99909.13;5038473;28;20490;-71
2023/05/25 10:32:36;;;;;;;9.02;2.97;;;;;;;22.74;43.72;99908.84;5049787;28;20075;-70
2023/05/25 10:35:03;;;;;;;8.38;3.10;;;;;;;22.83;43.41;99905.63;5058368;28;20532;-70
2023/05/25 10:37:30;;;;;;;8.07;3.00;;;;;;;22.78;42.92;99910.38;5058323;28;20025;-71
2023/05/25 10:39:59;;;;;;;13.20;2.70;;;;;;;22.79;43.37;99913.00;5058214;28;20025;-71
2023/05/25 10:42:26;;;;;;;10.27;2.90;;;;;;;22.97;42.93;99910.16;5053786;28;20121;-70
2023/05/25 10:44:52;;;;;;;10.93;3.10;;;;;;;23.25;43.19;99912.91;5038470;28;20107;-71
2023/05/25 10:47:18;;;;;;;9.75;3.00;;;;;;;23.50;42.42;99913.09;5041926;28;20091;-71
2023/05/25 10:49:57;;;;;;;9.27;2.80;;;;;;;23.67;40.06;99903.09;5058139;28;20020;-70
2023/05/25 10:52:27;;;;;;;10.65;3.00;;;;;;;23.84;42.04;99909.22;5058053;28;20036;-70
2023/05/25 10:55:00;;;;;;;11.00;3.13;;;;;;;23.89;41.04;99907.09;5057996;28;20083;-71
2023/05/25 10:57:27;;;;;;;9.27;2.83;;;;;;;23.82;40.96;99913.84;5036729;28;20060;-71
2023/05/25 10:59:58;;;;;;;9.77;2.90;;;;;;;23.93;40.78;99911.28;5038018;28;20036;-71
2023/05/25 11:02:27;;;;;;;8.15;2.70;;;;;;;24.13;40.80;99914.53;5045308;28;20025;-71
2023/05/25 11:05:26;;;;;;;7.75;2.50;;;;;;;24.29;40.69;99914.34;5054908;28;20501;-71
2023/05/25 11:07:53;;;;;;;8.27;2.97;;;;;;;24.51;40.50;99909.25;5038230;28;20025;-71
2023/05/25 11:10:41;;;;;;;7.50;2.53;;;;;;;24.48;39.98;99914.84;5037667;28;20036;-71
2023/05/25 11:13:36;;;;;;;8.33;3.10;;;;;;;24.41;39.72;99907.28;5037547;28;20509;-71
2023/05/25 11:16:25;;;;;;;8.98;3.13;;;;;;;24.38;39.90;99919.13;5037683;28;20059;-71
2023/05/25 11:18:53;;;;;;;10.68;2.90;;;;;;;24.53;39.83;99917.22;5046109;28;20025;-71
2023/05/25 11:21:25;;;;;;;8.00;2.90;;;;;;;24.66;40.79;99918.09;5051036;28;20421;-71
2023/05/25 11:24:02;;;;;;;9.82;2.78;;;;;;;24.75;40.05;99930.09;5037710;28;20108;-71